createdAt,value
2023-04-01T00:00:50.897Z,8.90
2023-04-01T00:03:19.092Z,8.90
2023-04-01T00:05:47.642Z,8.90
2023-04-01T00:08:17.326Z,8.80
2023-04-01T00:10:45.462Z,8.80
2023-04-01T00:13:13.601Z,8.80
2023-04-01T00:15:41.675Z,8.80
2023-04-01T00:18:09.725Z,8.80
2023-04-01T00:20:37.987Z,8.90
2023-04-01T00:23:06.997Z,8.80
2023-04-01T00:25:36.331Z,8.90
2023-04-01T00:28:04.286Z,8.90
2023-04-01T00:30:32.464Z,9.00
2023-04-01T00:33:00.834Z,9.00
2023-04-01T00:35:28.795Z,8.90
2023-04-01T00:37:57.135Z,8.90
2023-04-01T00:40:30.473Z,8.90
2023-04-01T00:43:00.192Z,8.90
2023-04-01T00:45:34.757Z,8.90
2023-04-01T00:48:07.958Z,8.90
2023-04-01T00:50:37.713Z,8.90
2023-04-01T00:53:07.441Z,8.90
2023-04-01T00:55:40.268Z,9.00
2023-04-01T00:58:13.234Z,9.00
2023-04-01T01:00:41.486Z,9.00
2023-04-01T01:03:09.608Z,9.00
2023-04-01T01:05:51.951Z,9.10
2023-04-01T01:08:27.522Z,9.00
2023-04-01T01:10:55.749Z,9.00
2023-04-01T01:13:34.932Z,9.00
2023-04-01T01:16:08.788Z,9.00
2023-04-01T01:18:41.608Z,9.00
2023-04-01T01:21:44.049Z,9.00
2023-04-01T01:24:43.512Z,9.00
2023-04-01T01:27:13.717Z,9.00
2023-04-01T01:30:21.004Z,9.00
2023-04-01T01:33:03.463Z,8.90
2023-04-01T01:35:37.141Z,8.90
2023-04-01T01:38:13.205Z,8.90
2023-04-01T01:40:48.024Z,8.90
2023-04-01T01:43:21.224Z,8.90
2023-04-01T01:45:52.868Z,8.90
2023-04-01T01:48:21.981Z,8.90
2023-04-01T01:50:52.331Z,8.90
2023-04-01T01:53:22.342Z,8.90
2023-04-01T01:55:50.719Z,8.80
2023-04-01T01:58:23.671Z,8.80
2023-04-01T02:00:55.578Z,8.80
2023-04-01T02:03:26.232Z,8.70
2023-04-01T02:05:58.967Z,8.70
2023-04-01T02:08:32.378Z,8.70
2023-04-01T02:11:02.988Z,8.60
2023-04-01T02:13:41.656Z,8.60
2023-04-01T02:16:15.428Z,8.60
2023-04-01T02:18:46.231Z,8.60
2023-04-01T02:21:17.175Z,8.70
2023-04-01T02:23:46.831Z,8.70
2023-04-01T02:26:16.108Z,8.60
2023-04-01T02:28:47.084Z,8.60
2023-04-01T02:31:16.551Z,8.60
2023-04-01T02:33:44.950Z,8.60
2023-04-01T02:36:16.494Z,8.60
2023-04-01T02:38:46.594Z,8.60
2023-04-01T02:41:14.839Z,8.60
2023-04-01T02:43:42.966Z,8.50
2023-04-01T02:46:11.115Z,8.50
2023-04-01T02:48:39.302Z,8.50
2023-04-01T02:51:07.404Z,8.40
2023-04-01T02:53:36.675Z,8.40
2023-04-01T02:56:05.093Z,8.40
2023-04-01T02:58:33.087Z,8.40
2023-04-01T03:01:01.153Z,8.40
2023-04-01T03:03:29.165Z,8.40
2023-04-01T03:05:59.596Z,8.40
2023-04-01T03:08:27.561Z,8.40
2023-04-01T03:10:59.037Z,8.40
2023-04-01T03:13:27.964Z,8.50
2023-04-01T03:15:56.088Z,8.50
2023-04-01T03:18:24.060Z,8.50
2023-04-01T03:20:51.989Z,8.50
2023-04-01T03:23:21.946Z,8.50
2023-04-01T03:25:50.011Z,8.50
2023-04-01T03:28:19.417Z,8.50
2023-04-01T03:30:47.420Z,8.40
2023-04-01T03:33:15.746Z,8.40
2023-04-01T03:35:43.738Z,8.40
2023-04-01T03:38:11.775Z,8.40
2023-04-01T03:40:43.860Z,8.40
2023-04-01T03:43:13.206Z,8.40
2023-04-01T03:45:47.453Z,8.40
2023-04-01T03:48:15.941Z,8.40
2023-04-01T03:50:43.830Z,8.40
2023-04-01T03:53:12.831Z,8.40
2023-04-01T03:55:43.982Z,8.40
2023-04-01T03:58:12.000Z,8.40
2023-04-01T04:00:40.880Z,8.40
2023-04-01T04:03:10.480Z,8.30
2023-04-01T04:05:38.564Z,8.40
2023-04-01T04:08:06.863Z,8.40
2023-04-01T04:10:36.526Z,8.40
2023-04-01T04:13:04.601Z,8.40
2023-04-01T04:15:36.011Z,8.40
2023-04-01T04:18:04.279Z,8.40
2023-04-01T04:20:33.617Z,8.40
2023-04-01T04:23:02.837Z,8.50
2023-04-01T04:25:31.234Z,8.40
2023-04-01T04:27:59.523Z,8.40
2023-04-01T04:30:27.528Z,8.50
2023-04-01T04:32:55.984Z,8.50
2023-04-01T04:35:24.057Z,8.40
2023-04-01T04:37:53.423Z,8.40
2023-04-01T04:40:21.520Z,8.30
2023-04-01T04:42:49.540Z,8.30
2023-04-01T04:45:18.177Z,8.30
2023-04-01T04:47:54.744Z,8.20
2023-04-01T04:50:23.321Z,8.20
2023-04-01T04:52:52.724Z,8.20
2023-04-01T04:55:21.703Z,8.20
2023-04-01T04:57:55.676Z,8.20
2023-04-01T05:00:23.699Z,8.20
2023-04-01T05:02:58.177Z,8.10
2023-04-01T05:05:26.270Z,8.10
2023-04-01T05:07:55.584Z,8.10
2023-04-01T05:10:23.500Z,8.10
2023-04-01T05:12:51.546Z,8.00
2023-04-01T05:15:22.989Z,8.00
2023-04-01T05:17:51.672Z,8.00
2023-04-01T05:20:19.784Z,8.00
2023-04-01T05:22:47.794Z,7.90
2023-04-01T05:25:17.457Z,8.00
2023-04-01T05:27:45.480Z,7.90
2023-04-01T05:30:14.236Z,7.90
2023-04-01T05:32:48.596Z,7.90
2023-04-01T05:35:16.698Z,8.00
2023-04-01T05:37:44.748Z,8.00
2023-04-01T05:40:13.603Z,8.00
2023-04-01T05:42:42.948Z,8.10
2023-04-01T05:45:11.792Z,8.10
2023-04-01T05:48:02.903Z,8.20
2023-04-01T05:50:35.505Z,8.30
2023-04-01T05:53:04.550Z,8.40
2023-04-01T05:55:32.864Z,8.50
2023-04-01T05:58:02.829Z,8.60
2023-04-01T06:00:31.617Z,8.70
2023-04-01T06:03:01.762Z,8.70
2023-04-01T06:05:32.288Z,8.80
2023-04-01T06:08:03.145Z,8.90
2023-04-01T06:10:41.928Z,9.00
2023-04-01T06:13:21.249Z,9.00
2023-04-01T06:15:56.057Z,9.00
2023-04-01T06:18:48.232Z,9.00
2023-04-01T06:21:36.128Z,9.10
2023-04-01T06:24:29.059Z,9.20
2023-04-01T06:27:06.684Z,9.20
2023-04-01T06:29:52.267Z,9.30
2023-04-01T06:32:44.710Z,9.30
2023-04-01T06:35:29.268Z,9.40
2023-04-01T06:38:42.713Z,9.40
2023-04-01T06:41:37.744Z,9.50
2023-04-01T06:44:19.943Z,9.50
2023-04-01T06:47:25.472Z,9.50
2023-04-01T06:50:21.616Z,9.60
2023-04-01T06:53:16.228Z,9.60
2023-04-01T06:56:26.004Z,9.50
2023-04-01T06:59:08.947Z,9.60
2023-04-01T07:01:41.610Z,9.60
2023-04-01T07:04:17.588Z,9.60
2023-04-01T07:06:50.340Z,9.60
2023-04-01T07:09:21.774Z,9.50
2023-04-01T07:12:14.255Z,9.60
2023-04-01T07:15:05.891Z,9.60
2023-04-01T07:17:38.441Z,9.60
2023-04-01T07:20:15.725Z,9.60
2023-04-01T07:22:46.346Z,9.60
2023-04-01T07:25:47.501Z,9.70
2023-04-01T07:28:34.897Z,9.60
2023-04-01T07:31:28.769Z,9.60
2023-04-01T07:34:05.456Z,9.60
2023-04-01T07:36:41.117Z,9.60
2023-04-01T07:39:19.908Z,9.70
2023-04-01T07:42:03.530Z,9.60
2023-04-01T07:44:42.762Z,9.60
2023-04-01T07:47:25.525Z,9.60
2023-04-01T07:50:05.054Z,9.70
2023-04-01T07:52:45.301Z,9.70
2023-04-01T07:55:26.559Z,9.70
2023-04-01T07:58:04.863Z,9.80
2023-04-01T08:00:44.634Z,9.80
2023-04-01T08:03:38.078Z,9.90
2023-04-01T08:06:17.416Z,10.00
2023-04-01T08:08:58.994Z,10.10
2023-04-01T08:12:01.747Z,10.10
2023-04-01T08:14:57.946Z,10.10
2023-04-01T08:17:55.171Z,10.10
2023-04-01T08:20:34.641Z,10.10
2023-04-01T08:23:10.371Z,10.10
2023-04-01T08:25:48.226Z,10.10
2023-04-01T08:28:22.676Z,10.20
2023-04-01T08:30:54.561Z,10.20
2023-04-01T08:33:27.033Z,10.30
2023-04-01T08:36:07.836Z,10.20
2023-04-01T08:38:42.302Z,10.20
2023-04-01T08:41:28.846Z,10.20
2023-04-01T08:44:40.526Z,10.00
2023-04-01T08:47:30.755Z,10.00
2023-04-01T08:50:12.999Z,9.80
2023-04-01T08:53:00.845Z,9.60
2023-04-01T08:55:49.144Z,9.60
2023-04-01T08:58:57.060Z,9.40
2023-04-01T09:01:53.094Z,9.30
2023-04-01T09:05:21.028Z,9.30
2023-04-01T09:07:58.894Z,9.30
2023-04-01T09:10:48.346Z,9.30
2023-04-01T09:13:57.444Z,9.30
2023-04-01T09:17:07.851Z,9.40
2023-04-01T09:19:59.031Z,9.40
2023-04-01T09:22:49.769Z,9.50
2023-04-01T09:25:50.432Z,9.60
2023-04-01T09:28:22.160Z,9.70
2023-04-01T09:31:19.760Z,9.90
2023-04-01T09:34:54.216Z,10.00
2023-04-01T09:37:33.494Z,10.30
2023-04-01T09:40:18.683Z,10.40
2023-04-01T09:43:27.118Z,10.30
2023-04-01T09:46:27.199Z,10.20
2023-04-01T09:49:22.939Z,10.10
2023-04-01T09:52:08.851Z,10.10
2023-04-01T09:55:00.284Z,10.10
2023-04-01T09:57:56.250Z,10.10
2023-04-01T10:01:12.292Z,10.10
2023-04-01T10:04:19.482Z,10.20
2023-04-01T10:07:09.568Z,10.20
2023-04-01T10:10:22.075Z,10.20
2023-04-01T10:13:19.746Z,10.20
2023-04-01T10:16:13.201Z,10.30
2023-04-01T10:19:12.483Z,10.40
2023-04-01T10:22:14.229Z,10.50
2023-04-01T10:25:07.499Z,10.70
2023-04-01T10:28:13.966Z,10.80
2023-04-01T10:31:28.433Z,11.10
2023-04-01T10:34:35.567Z,11.10
2023-04-01T10:37:17.895Z,10.80
2023-04-01T10:40:14.443Z,10.70
2023-04-01T10:43:38.088Z,10.60
2023-04-01T10:46:51.517Z,10.50
2023-04-01T10:50:14.422Z,10.60
2023-04-01T10:53:09.527Z,10.60
2023-04-01T10:56:21.663Z,10.60
2023-04-01T10:59:44.407Z,10.60
2023-04-01T11:03:23.396Z,10.70
2023-04-01T11:07:17.331Z,10.80
2023-04-01T11:10:21.630Z,10.80
2023-04-01T11:13:27.470Z,10.90
2023-04-01T11:16:36.505Z,10.90
2023-04-01T11:19:48.034Z,11.00
2023-04-01T11:22:33.597Z,11.20
2023-04-01T11:25:31.363Z,11.30
2023-04-01T11:28:55.496Z,11.30
2023-04-01T11:31:39.295Z,11.50
2023-04-01T11:34:19.725Z,11.50
2023-04-01T11:36:57.832Z,11.70
2023-04-01T11:39:39.146Z,11.70
2023-04-01T11:42:35.353Z,11.70
2023-04-01T11:45:38.714Z,11.90
2023-04-01T11:48:38.211Z,11.80
2023-04-01T11:51:35.993Z,11.80
2023-04-01T11:54:16.621Z,11.70
2023-04-01T11:56:58.257Z,11.70
2023-04-01T11:59:53.272Z,11.60
2023-04-01T12:02:30.618Z,11.50
2023-04-01T12:05:28.894Z,11.20
2023-04-01T12:08:09.498Z,11.20
2023-04-01T12:10:43.297Z,11.30
2023-04-01T12:13:20.839Z,11.20
2023-04-01T12:16:03.359Z,11.30
2023-04-01T12:18:38.605Z,11.30
2023-04-01T12:21:19.446Z,11.20
2023-04-01T12:24:27.370Z,11.20
2023-04-01T12:27:11.657Z,11.20
2023-04-01T12:30:07.974Z,11.10
2023-04-01T12:32:47.777Z,11.20
2023-04-01T12:35:22.736Z,11.20
2023-04-01T12:38:05.298Z,11.30
2023-04-01T12:40:53.536Z,11.50
2023-04-01T12:44:13.780Z,11.60
2023-04-01T12:47:01.444Z,11.70
2023-04-01T12:50:06.627Z,11.70
2023-04-01T12:52:47.108Z,11.90
2023-04-01T12:55:37.467Z,11.80
2023-04-01T12:58:44.079Z,11.80
2023-04-01T13:01:27.967Z,11.70
2023-04-01T13:04:32.577Z,11.60
2023-04-01T13:07:23.624Z,11.60
2023-04-01T13:10:02.003Z,11.70
2023-04-01T13:12:44.681Z,11.80
2023-04-01T13:15:24.993Z,11.70
2023-04-01T13:17:57.455Z,11.80
2023-04-01T13:20:36.135Z,11.70
2023-04-01T13:23:15.479Z,11.60
2023-04-01T13:25:59.290Z,11.60
2023-04-01T13:28:42.903Z,11.70
2023-04-01T13:31:21.612Z,11.70
2023-04-01T13:33:59.405Z,11.70
2023-04-01T13:36:38.796Z,11.80
2023-04-01T13:39:27.492Z,11.80
2023-04-01T13:42:18.861Z,11.90
2023-04-01T13:44:53.854Z,11.90
2023-04-01T13:47:45.810Z,11.80
2023-04-01T13:50:33.603Z,11.70
2023-04-01T13:53:39.332Z,11.80
2023-04-01T13:56:18.587Z,11.80
2023-04-01T13:59:13.082Z,11.90
2023-04-01T14:01:47.923Z,11.90
2023-04-01T14:04:42.945Z,11.80
2023-04-01T14:07:22.481Z,11.70
2023-04-01T14:10:07.359Z,11.70
2023-04-01T14:12:42.303Z,11.50
2023-04-01T14:15:29.076Z,11.50
2023-04-01T14:18:18.323Z,11.50
2023-04-01T14:20:55.479Z,11.60
2023-04-01T14:23:50.444Z,11.60
2023-04-01T14:26:31.507Z,11.50
2023-04-01T14:29:06.680Z,11.40
2023-04-01T14:31:50.182Z,11.40
2023-04-01T14:34:30.838Z,11.30
2023-04-01T14:37:20.553Z,11.30
2023-04-01T14:40:18.301Z,11.30
2023-04-01T14:43:18.349Z,11.30
2023-04-01T14:46:04.478Z,11.20
2023-04-01T14:48:36.203Z,11.10
2023-04-01T14:51:18.350Z,11.10
2023-04-01T14:54:00.890Z,11.00
2023-04-01T14:56:40.372Z,11.00
2023-04-01T14:59:15.398Z,11.10
2023-04-01T15:01:52.599Z,11.20
2023-04-01T15:04:45.665Z,11.30
2023-04-01T15:08:04.524Z,11.30
2023-04-01T15:11:06.744Z,11.40
2023-04-01T15:14:01.881Z,11.30
2023-04-01T15:16:36.455Z,11.20
2023-04-01T15:19:14.823Z,11.30
2023-04-01T15:21:52.472Z,11.30
2023-04-01T15:24:25.948Z,11.30
2023-04-01T15:27:10.037Z,11.30
2023-04-01T15:30:09.298Z,11.40
2023-04-01T15:32:52.404Z,11.40
2023-04-01T15:35:32.319Z,11.40
2023-04-01T15:38:08.913Z,11.40
2023-04-01T15:40:44.816Z,11.30
2023-04-01T15:43:24.677Z,11.30
2023-04-01T15:46:00.603Z,11.30
2023-04-01T15:48:37.897Z,11.30
2023-04-01T15:51:30.508Z,11.30
2023-04-01T15:54:23.530Z,11.30
2023-04-01T15:57:04.403Z,11.30
2023-04-01T15:59:55.789Z,11.20
2023-04-01T16:02:32.477Z,11.30
2023-04-01T16:05:03.963Z,11.30
2023-04-01T16:07:45.545Z,11.30
2023-04-01T16:10:23.835Z,11.20
2023-04-01T16:13:06.165Z,11.10
2023-04-01T16:15:44.759Z,11.20
2023-04-01T16:18:29.876Z,11.20
2023-04-01T16:21:02.959Z,11.10
2023-04-01T16:23:38.812Z,11.00
2023-04-01T16:26:11.316Z,11.00
2023-04-01T16:28:49.758Z,10.90
2023-04-01T16:31:32.521Z,10.90
2023-04-01T16:34:06.983Z,10.90
2023-04-01T16:36:42.627Z,10.90
2023-04-01T16:39:29.843Z,10.90
2023-04-01T16:42:15.691Z,10.90
2023-04-01T16:44:52.280Z,10.90
2023-04-01T16:47:24.425Z,10.80
2023-04-01T16:49:55.856Z,10.80
2023-04-01T16:52:46.169Z,10.80
2023-04-01T16:55:19.670Z,10.90
2023-04-01T16:57:52.486Z,11.00
2023-04-01T17:00:28.460Z,11.00
2023-04-01T17:03:06.814Z,10.90
2023-04-01T17:05:54.045Z,11.00
2023-04-01T17:08:36.495Z,11.00
2023-04-01T17:11:11.413Z,11.00
2023-04-01T17:13:47.944Z,11.00
2023-04-01T17:16:44.254Z,11.00
2023-04-01T17:19:26.262Z,11.00
2023-04-01T17:22:06.395Z,11.00
2023-04-01T17:24:49.221Z,10.90
2023-04-01T17:27:33.333Z,10.90
2023-04-01T17:30:19.497Z,10.90
2023-04-01T17:33:22.399Z,10.90
2023-04-01T17:35:59.361Z,11.00
2023-04-01T17:38:42.636Z,10.90
2023-04-01T17:41:18.342Z,10.90
2023-04-01T17:43:53.834Z,10.90
2023-04-01T17:46:41.427Z,10.90
2023-04-01T17:49:24.443Z,10.90
2023-04-01T17:52:01.823Z,10.80
2023-04-01T17:54:40.063Z,10.80
2023-04-01T17:57:34.921Z,10.80
2023-04-01T18:00:05.744Z,10.70
2023-04-01T18:02:50.880Z,10.70
2023-04-01T18:05:41.561Z,10.60
2023-04-01T18:08:17.456Z,10.50
2023-04-01T18:10:59.647Z,10.50
2023-04-01T18:13:53.346Z,10.50
2023-04-01T18:16:38.444Z,10.40
2023-04-01T18:19:17.403Z,10.30
2023-04-01T18:21:49.354Z,10.20
2023-04-01T18:24:26.083Z,10.10
2023-04-01T18:27:06.141Z,10.10
2023-04-01T18:29:42.015Z,10.10
2023-04-01T18:32:17.461Z,10.00
2023-04-01T18:34:58.488Z,10.00
2023-04-01T18:37:30.642Z,10.00
2023-04-01T18:40:12.315Z,10.00
2023-04-01T18:42:48.784Z,9.90
2023-04-01T18:45:24.710Z,9.80
2023-04-01T18:48:02.009Z,9.70
2023-04-01T18:50:35.024Z,9.70
2023-04-01T18:53:15.644Z,9.60
2023-04-01T18:55:51.270Z,9.60
2023-04-01T18:58:37.454Z,9.50
2023-04-01T19:01:19.527Z,9.50
2023-04-01T19:03:57.636Z,9.40
2023-04-01T19:06:32.094Z,9.40
2023-04-01T19:09:17.893Z,9.30
2023-04-01T19:12:06.359Z,9.20
2023-04-01T19:14:50.075Z,9.20
2023-04-01T19:17:30.196Z,9.10
2023-04-01T19:20:07.459Z,9.00
2023-04-01T19:22:52.630Z,9.00
2023-04-01T19:25:33.557Z,9.00
2023-04-01T19:28:17.521Z,8.90
2023-04-01T19:30:55.200Z,8.90
2023-04-01T19:33:41.763Z,8.90
2023-04-01T19:36:18.493Z,8.80
2023-04-01T19:38:56.762Z,8.80
2023-04-01T19:41:38.147Z,8.80
2023-04-01T19:44:30.520Z,8.70
2023-04-01T19:47:06.800Z,8.70
2023-04-01T19:49:47.768Z,8.60
2023-04-01T19:52:22.749Z,8.60
2023-04-01T19:54:58.406Z,8.50
2023-04-01T19:57:37.223Z,8.50
2023-04-01T20:00:17.026Z,8.40
2023-04-01T20:03:05.312Z,8.40
2023-04-01T20:05:44.386Z,8.50
2023-04-01T20:08:19.191Z,8.50
2023-04-01T20:10:54.652Z,8.50
2023-04-01T20:13:31.532Z,8.50
2023-04-01T20:16:06.752Z,8.60
2023-04-01T20:18:43.007Z,8.60
2023-04-01T20:21:29.525Z,8.60
2023-04-01T20:24:01.204Z,8.70
2023-04-01T20:26:34.035Z,8.70
2023-04-01T20:29:40.604Z,8.70
2023-04-01T20:32:21.342Z,8.70
2023-04-01T20:35:09.621Z,8.70
2023-04-01T20:37:43.132Z,8.80
2023-04-01T20:40:33.989Z,8.80
2023-04-01T20:43:22.389Z,8.80
2023-04-01T20:45:58.579Z,8.80
2023-04-01T20:48:44.760Z,8.80
2023-04-01T20:51:16.888Z,8.80
2023-04-01T20:53:48.477Z,8.90
2023-04-01T20:56:34.088Z,8.90
2023-04-01T20:59:19.095Z,8.90
2023-04-01T21:01:56.759Z,8.90
2023-04-01T21:04:32.817Z,8.90
2023-04-01T21:07:23.888Z,8.90
2023-04-01T21:10:10.189Z,8.90
2023-04-01T21:12:48.550Z,8.90
2023-04-01T21:15:39.567Z,8.90
2023-04-01T21:18:22.912Z,8.90
2023-04-01T21:21:23.749Z,8.90
2023-04-01T21:24:11.450Z,9.00
2023-04-01T21:26:53.668Z,9.00
2023-04-01T21:29:39.028Z,8.90
2023-04-01T21:32:20.112Z,8.90
2023-04-01T21:34:55.733Z,8.90
2023-04-01T21:37:44.902Z,8.90
2023-04-01T21:40:45.111Z,8.90
2023-04-01T21:43:29.014Z,8.90
2023-04-01T21:46:33.630Z,8.90
2023-04-01T21:49:19.384Z,8.90
2023-04-01T21:52:15.555Z,8.80
2023-04-01T21:55:25.402Z,8.80
2023-04-01T21:58:21.422Z,8.80
2023-04-01T22:00:58.914Z,8.80
2023-04-01T22:04:07.120Z,8.80
2023-04-01T22:06:41.987Z,8.80
2023-04-01T22:09:14.722Z,8.70
2023-04-01T22:11:54.407Z,8.70
2023-04-01T22:14:29.993Z,8.70
2023-04-01T22:17:04.578Z,8.70
2023-04-01T22:19:42.612Z,8.70
2023-04-01T22:22:18.187Z,8.70
2023-04-01T22:24:55.589Z,8.70
2023-04-01T22:27:30.291Z,8.70
2023-04-01T22:30:11.749Z,8.70
2023-04-01T22:32:44.411Z,8.70
2023-04-01T22:35:40.062Z,8.70
2023-04-01T22:38:22.559Z,8.80
2023-04-01T22:40:56.710Z,8.80
2023-04-01T22:43:32.072Z,8.80
2023-04-01T22:46:18.254Z,8.80
2023-04-01T22:48:50.330Z,8.90
2023-04-01T22:51:22.364Z,8.90
2023-04-01T22:54:06.353Z,8.90
2023-04-01T22:56:38.489Z,8.90
2023-04-01T22:59:12.595Z,8.80
2023-04-01T23:01:47.863Z,8.80
2023-04-01T23:04:19.282Z,8.80
2023-04-01T23:06:53.530Z,8.80
2023-04-01T23:09:24.325Z,8.80
2023-04-01T23:11:55.371Z,8.70
2023-04-01T23:14:51.461Z,8.70
2023-04-01T23:17:41.653Z,8.70
2023-04-01T23:20:19.934Z,8.70
2023-04-01T23:22:58.795Z,8.70
2023-04-01T23:25:34.672Z,8.70
2023-04-01T23:28:21.363Z,8.70
2023-04-01T23:30:52.444Z,8.60
2023-04-01T23:33:29.005Z,8.60
2023-04-01T23:36:06.123Z,8.60
2023-04-01T23:38:36.735Z,8.60
2023-04-01T23:41:06.375Z,8.60
2023-04-01T23:43:38.824Z,8.60
2023-04-01T23:46:09.376Z,8.60
2023-04-01T23:48:42.000Z,8.50
2023-04-01T23:51:18.428Z,8.50
2023-04-01T23:53:48.590Z,8.50
2023-04-01T23:56:19.683Z,8.40
2023-04-01T23:58:53.216Z,8.40
